sensor_id;sensor_type;location;lat;lon;timestamp;temperature;humidity
67890;DHT22;54685;52.082;5.426;2023-06-22T00:00:06;19.10;99.90
67890;DHT22;54685;52.082;5.426;2023-06-22T00:02:40;19.10;99.90
67890;DHT22;54685;52.082;5.426;2023-06-22T00:05:07;19.10;99.90
67890;DHT22;54685;52.082;5.426;2023-06-22T00:07:36;19.10;99.90
67890;DHT22;54685;52.082;5.426;2023-06-22T00:10:06;19.10;99.90
67890;DHT22;54685;52.082;5.426;2023-06-22T00:12:33;19.00;99.90
67890;DHT22;54685;52.082;5.426;2023-06-22T00:15:00;19.00;99.90
67890;DHT22;54685;52.082;5.426;2023-06-22T00:17:30;19.00;99.90
67890;DHT22;54685;52.082;5.426;2023-06-22T00:19:58;19.00;99.90
67890;DHT22;54685;52.082;5.426;2023-06-22T00:22:26;19.00;99.90
67890;DHT22;54685;52.082;5.426;2023-06-22T00:24:57;19.00;99.90
67890;DHT22;54685;52.082;5.426;2023-06-22T00:27:24;18.90;99.90
67890;DHT22;54685;52.082;5.426;2023-06-22T00:29:50;18.90;99.90
67890;DHT22;54685;52.082;5.426;2023-06-22T00:32:18;18.70;99.90
67890;DHT22;54685;52.082;5.426;2023-06-22T00:34:47;18.60;99.90
67890;DHT22;54685;52.082;5.426;2023-06-22T00:37:14;18.50;99.90
67890;DHT22;54685;52.082;5.426;2023-06-22T00:39:42;18.50;99.90
67890;DHT22;54685;52.082;5.426;2023-06-22T00:42:11;18.40;99.90
67890;DHT22;54685;52.082;5.426;2023-06-22T00:44:38;18.40;99.90
67890;DHT22;54685;52.082;5.426;2023-06-22T00:47:06;18.40;99.90
67890;DHT22;54685;52.082;5.426;2023-06-22T00:49:33;18.40;99.90
67890;DHT22;54685;52.082;5.426;2023-06-22T00:52:00;18.30;99.90
67890;DHT22;54685;52.082;5.426;2023-06-22T00:54:28;18.30;99.90
67890;DHT22;54685;52.082;5.426;2023-06-22T00:56:55;18.30;99.90
67890;DHT22;54685;52.082;5.426;2023-06-22T00:59:24;18.30;99.90
67890;DHT22;54685;52.082;5.426;2023-06-22T01:01:53;18.30;99.90
67890;DHT22;54685;52.082;5.426;2023-06-22T01:04:26;18.40;99.90
67890;DHT22;54685;52.082;5.426;2023-06-22T01:12:38;18.30;99.90
67890;DHT22;54685;52.082;5.426;2023-06-22T01:15:28;18.30;99.90
67890;DHT22;54685;52.082;5.426;2023-06-22T01:17:57;18.20;99.90
67890;DHT22;54685;52.082;5.426;2023-06-22T01:20:26;18.20;99.90
67890;DHT22;54685;52.082;5.426;2023-06-22T01:23:09;18.20;99.90
67890;DHT22;54685;52.082;5.426;2023-06-22T01:28:40;18.10;99.90
67890;DHT22;54685;52.082;5.426;2023-06-22T01:31:11;18.10;99.90
67890;DHT22;54685;52.082;5.426;2023-06-22T01:33:42;18.10;99.90
67890;DHT22;54685;52.082;5.426;2023-06-22T01:36:12;18.00;99.90
67890;DHT22;54685;52.082;5.426;2023-06-22T01:38:46;18.00;99.90
67890;DHT22;54685;52.082;5.426;2023-06-22T01:41:15;18.00;99.90
67890;DHT22;54685;52.082;5.426;2023-06-22T01:43:43;17.90;99.90
67890;DHT22;54685;52.082;5.426;2023-06-22T01:46:11;17.80;99.90
67890;DHT22;54685;52.082;5.426;2023-06-22T01:48:39;17.70;99.90
67890;DHT22;54685;52.082;5.426;2023-06-22T01:51:06;17.60;99.90
67890;DHT22;54685;52.082;5.426;2023-06-22T01:53:34;17.60;99.90
67890;DHT22;54685;52.082;5.426;2023-06-22T01:56:01;17.50;99.90
67890;DHT22;54685;52.082;5.426;2023-06-22T01:58:30;17.40;99.90
67890;DHT22;54685;52.082;5.426;2023-06-22T02:03:36;17.40;99.90
67890;DHT22;54685;52.082;5.426;2023-06-22T02:06:07;17.30;99.90
67890;DHT22;54685;52.082;5.426;2023-06-22T02:08:47;17.40;99.90
67890;DHT22;54685;52.082;5.426;2023-06-22T02:11:18;17.40;99.90
67890;DHT22;54685;52.082;5.426;2023-06-22T02:13:47;17.40;99.90
67890;DHT22;54685;52.082;5.426;2023-06-22T02:16:14;17.40;99.90
67890;DHT22;54685;52.082;5.426;2023-06-22T02:18:48;17.30;99.90
67890;DHT22;54685;52.082;5.426;2023-06-22T02:21:21;17.30;99.90
67890;DHT22;54685;52.082;5.426;2023-06-22T02:23:48;17.40;99.90
67890;DHT22;54685;52.082;5.426;2023-06-22T02:26:17;17.40;99.90
67890;DHT22;54685;52.082;5.426;2023-06-22T02:28:44;17.40;99.90
67890;DHT22;54685;52.082;5.426;2023-06-22T02:31:16;17.40;99.90
67890;DHT22;54685;52.082;5.426;2023-06-22T02:33:45;17.40;99.90
67890;DHT22;54685;52.082;5.426;2023-06-22T02:36:12;17.30;99.90
67890;DHT22;54685;52.082;5.426;2023-06-22T02:38:43;17.40;99.90
67890;DHT22;54685;52.082;5.426;2023-06-22T02:41:15;17.40;99.90
67890;DHT22;54685;52.082;5.426;2023-06-22T02:43:45;17.40;99.90
67890;DHT22;54685;52.082;5.426;2023-06-22T02:46:14;17.40;99.90
67890;DHT22;54685;52.082;5.426;2023-06-22T02:48:41;17.30;99.90
67890;DHT22;54685;52.082;5.426;2023-06-22T02:51:11;17.30;99.90
67890;DHT22;54685;52.082;5.426;2023-06-22T02:53:38;17.20;99.90
67890;DHT22;54685;52.082;5.426;2023-06-22T02:56:05;17.20;99.90
67890;DHT22;54685;52.082;5.426;2023-06-22T02:58:35;17.20;99.90
67890;DHT22;54685;52.082;5.426;2023-06-22T03:01:08;17.10;99.90
67890;DHT22;54685;52.082;5.426;2023-06-22T03:03:37;17.10;99.90
67890;DHT22;54685;52.082;5.426;2023-06-22T03:06:04;17.10;99.90
67890;DHT22;54685;52.082;5.426;2023-06-22T03:08:31;17.00;99.90
67890;DHT22;54685;52.082;5.426;2023-06-22T03:10:58;17.00;99.90
67890;DHT22;54685;52.082;5.426;2023-06-22T03:13:25;17.00;99.90
67890;DHT22;54685;52.082;5.426;2023-06-22T03:15:52;17.00;99.90
67890;DHT22;54685;52.082;5.426;2023-06-22T03:18:19;17.00;99.90
67890;DHT22;54685;52.082;5.426;2023-06-22T03:20:49;16.90;99.90
67890;DHT22;54685;52.082;5.426;2023-06-22T03:23:16;17.00;99.90
67890;DHT22;54685;52.082;5.426;2023-06-22T03:25:43;16.90;99.90
67890;DHT22;54685;52.082;5.426;2023-06-22T03:28:13;16.90;99.90
67890;DHT22;54685;52.082;5.426;2023-06-22T03:30:43;16.80;99.90
67890;DHT22;54685;52.082;5.426;2023-06-22T03:33:12;16.70;99.90
67890;DHT22;54685;52.082;5.426;2023-06-22T03:35:39;16.70;99.90
67890;DHT22;54685;52.082;5.426;2023-06-22T03:38:06;16.60;99.90
67890;DHT22;54685;52.082;5.426;2023-06-22T03:40:33;16.50;99.90
67890;DHT22;54685;52.082;5.426;2023-06-22T03:43:00;16.40;99.90
67890;DHT22;54685;52.082;5.426;2023-06-22T03:45:29;16.30;99.90
67890;DHT22;54685;52.082;5.426;2023-06-22T03:47:57;16.30;99.90
67890;DHT22;54685;52.082;5.426;2023-06-22T03:50:24;16.30;99.90
67890;DHT22;54685;52.082;5.426;2023-06-22T03:52:51;16.40;99.90
67890;DHT22;54685;52.082;5.426;2023-06-22T03:55:20;16.40;99.90
67890;DHT22;54685;52.082;5.426;2023-06-22T03:57:47;16.40;99.90
67890;DHT22;54685;52.082;5.426;2023-06-22T04:00:14;16.40;99.90
67890;DHT22;54685;52.082;5.426;2023-06-22T04:02:42;16.40;99.90
67890;DHT22;54685;52.082;5.426;2023-06-22T04:05:09;16.40;99.90
67890;DHT22;54685;52.082;5.426;2023-06-22T04:07:43;16.50;99.90
67890;DHT22;54685;52.082;5.426;2023-06-22T04:10:10;16.50;99.90
67890;DHT22;54685;52.082;5.426;2023-06-22T04:12:39;16.50;99.90
67890;DHT22;54685;52.082;5.426;2023-06-22T04:15:09;16.50;99.90
67890;DHT22;54685;52.082;5.426;2023-06-22T04:17:36;16.60;99.90
67890;DHT22;54685;52.082;5.426;2023-06-22T04:20:03;16.60;99.90
67890;DHT22;54685;52.082;5.426;2023-06-22T04:22:31;16.60;99.90
67890;DHT22;54685;52.082;5.426;2023-06-22T04:24:58;16.70;99.90
67890;DHT22;54685;52.082;5.426;2023-06-22T04:27:25;16.70;99.90
67890;DHT22;54685;52.082;5.426;2023-06-22T04:29:53;16.80;99.90
67890;DHT22;54685;52.082;5.426;2023-06-22T04:32:20;16.70;99.90
67890;DHT22;54685;52.082;5.426;2023-06-22T04:34:47;16.70;99.90
67890;DHT22;54685;52.082;5.426;2023-06-22T04:37:37;16.80;99.90
67890;DHT22;54685;52.082;5.426;2023-06-22T04:40:06;16.80;99.90
67890;DHT22;54685;52.082;5.426;2023-06-22T04:42:38;16.80;99.90
67890;DHT22;54685;52.082;5.426;2023-06-22T04:45:05;16.80;99.90
67890;DHT22;54685;52.082;5.426;2023-06-22T04:47:32;16.80;99.90
67890;DHT22;54685;52.082;5.426;2023-06-22T04:49:59;16.90;99.90
67890;DHT22;54685;52.082;5.426;2023-06-22T04:52:29;16.90;99.90
67890;DHT22;54685;52.082;5.426;2023-06-22T04:54:56;17.00;99.90
67890;DHT22;54685;52.082;5.426;2023-06-22T04:57:24;17.00;99.90
67890;DHT22;54685;52.082;5.426;2023-06-22T04:59:59;17.10;99.90
67890;DHT22;54685;52.082;5.426;2023-06-22T05:02:44;17.10;99.90
67890;DHT22;54685;52.082;5.426;2023-06-22T05:05:13;17.20;99.90
67890;DHT22;54685;52.082;5.426;2023-06-22T05:07:42;17.20;99.90
67890;DHT22;54685;52.082;5.426;2023-06-22T05:10:11;17.20;99.90
67890;DHT22;54685;52.082;5.426;2023-06-22T05:12:40;17.20;99.90
67890;DHT22;54685;52.082;5.426;2023-06-22T05:15:08;17.20;99.90
67890;DHT22;54685;52.082;5.426;2023-06-22T05:17:36;17.20;99.90
67890;DHT22;54685;52.082;5.426;2023-06-22T05:20:12;17.20;99.90
67890;DHT22;54685;52.082;5.426;2023-06-22T05:22:46;17.40;99.90
67890;DHT22;54685;52.082;5.426;2023-06-22T05:25:13;17.30;99.90
67890;DHT22;54685;52.082;5.426;2023-06-22T05:27:40;17.40;99.90
67890;DHT22;54685;52.082;5.426;2023-06-22T05:30:08;17.50;99.90
67890;DHT22;54685;52.082;5.426;2023-06-22T05:32:36;17.50;99.90
67890;DHT22;54685;52.082;5.426;2023-06-22T05:35:03;17.60;99.90
67890;DHT22;54685;52.082;5.426;2023-06-22T05:37:31;17.70;99.90
67890;DHT22;54685;52.082;5.426;2023-06-22T05:39:58;17.80;99.90
67890;DHT22;54685;52.082;5.426;2023-06-22T05:42:25;17.90;99.90
67890;DHT22;54685;52.082;5.426;2023-06-22T05:44:53;18.00;99.90
67890;DHT22;54685;52.082;5.426;2023-06-22T05:47:20;18.00;99.90
67890;DHT22;54685;52.082;5.426;2023-06-22T05:49:47;18.10;99.90
67890;DHT22;54685;52.082;5.426;2023-06-22T05:52:15;18.20;99.90
67890;DHT22;54685;52.082;5.426;2023-06-22T05:54:50;18.20;99.90
67890;DHT22;54685;52.082;5.426;2023-06-22T05:57:22;18.30;99.90
67890;DHT22;54685;52.082;5.426;2023-06-22T05:59:53;18.40;99.90
67890;DHT22;54685;52.082;5.426;2023-06-22T06:02:30;18.50;99.90
67890;DHT22;54685;52.082;5.426;2023-06-22T06:04:57;18.60;99.90
67890;DHT22;54685;52.082;5.426;2023-06-22T06:07:24;18.80;99.90
67890;DHT22;54685;52.082;5.426;2023-06-22T06:09:54;18.90;99.90
67890;DHT22;54685;52.082;5.426;2023-06-22T06:12:21;19.00;99.90
67890;DHT22;54685;52.082;5.426;2023-06-22T06:14:48;19.20;99.90
67890;DHT22;54685;52.082;5.426;2023-06-22T06:17:15;19.30;99.90
67890;DHT22;54685;52.082;5.426;2023-06-22T06:19:42;19.40;99.90
67890;DHT22;54685;52.082;5.426;2023-06-22T06:22:08;19.50;99.90
67890;DHT22;54685;52.082;5.426;2023-06-22T06:24:35;19.50;99.90
67890;DHT22;54685;52.082;5.426;2023-06-22T06:27:02;19.70;99.90
67890;DHT22;54685;52.082;5.426;2023-06-22T06:29:34;19.80;99.90
67890;DHT22;54685;52.082;5.426;2023-06-22T06:32:01;19.90;99.90
67890;DHT22;54685;52.082;5.426;2023-06-22T06:34:28;20.00;99.90
67890;DHT22;54685;52.082;5.426;2023-06-22T06:36:55;20.00;99.90
67890;DHT22;54685;52.082;5.426;2023-06-22T06:39:22;20.10;99.90
67890;DHT22;54685;52.082;5.426;2023-06-22T06:41:49;20.20;99.90
67890;DHT22;54685;52.082;5.426;2023-06-22T06:44:19;20.30;99.90
67890;DHT22;54685;52.082;5.426;2023-06-22T06:46:46;20.40;99.90
67890;DHT22;54685;52.082;5.426;2023-06-22T06:49:13;20.50;99.90
67890;DHT22;54685;52.082;5.426;2023-06-22T06:51:40;20.60;99.90
67890;DHT22;54685;52.082;5.426;2023-06-22T06:54:07;20.70;99.90
67890;DHT22;54685;52.082;5.426;2023-06-22T06:56:34;20.80;99.90
67890;DHT22;54685;52.082;5.426;2023-06-22T06:59:01;20.90;99.90
67890;DHT22;54685;52.082;5.426;2023-06-22T07:01:28;21.00;99.90
67890;DHT22;54685;52.082;5.426;2023-06-22T07:04:00;21.00;99.90
67890;DHT22;54685;52.082;5.426;2023-06-22T07:06:28;21.10;99.90
67890;DHT22;54685;52.082;5.426;2023-06-22T07:08:59;21.20;99.90
67890;DHT22;54685;52.082;5.426;2023-06-22T07:11:26;21.20;99.90
67890;DHT22;54685;52.082;5.426;2023-06-22T07:13:53;21.40;99.90
67890;DHT22;54685;52.082;5.426;2023-06-22T07:16:20;21.50;99.90
67890;DHT22;54685;52.082;5.426;2023-06-22T07:18:49;21.60;99.90
67890;DHT22;54685;52.082;5.426;2023-06-22T07:21:16;21.60;99.90
67890;DHT22;54685;52.082;5.426;2023-06-22T07:23:43;21.70;99.90
67890;DHT22;54685;52.082;5.426;2023-06-22T07:26:10;21.80;99.90
67890;DHT22;54685;52.082;5.426;2023-06-22T07:28:39;21.80;99.90
67890;DHT22;54685;52.082;5.426;2023-06-22T07:31:07;21.90;99.90
67890;DHT22;54685;52.082;5.426;2023-06-22T07:33:34;22.00;99.90
67890;DHT22;54685;52.082;5.426;2023-06-22T07:36:01;22.00;99.90
67890;DHT22;54685;52.082;5.426;2023-06-22T07:38:30;22.10;99.90
67890;DHT22;54685;52.082;5.426;2023-06-22T07:40:57;22.20;99.90
67890;DHT22;54685;52.082;5.426;2023-06-22T07:43:24;22.20;99.90
67890;DHT22;54685;52.082;5.426;2023-06-22T07:45:51;22.30;99.90
67890;DHT22;54685;52.082;5.426;2023-06-22T07:48:22;22.30;99.90
67890;DHT22;54685;52.082;5.426;2023-06-22T07:50:49;22.40;99.90
67890;DHT22;54685;52.082;5.426;2023-06-22T07:53:25;22.50;99.90
67890;DHT22;54685;52.082;5.426;2023-06-22T07:55:55;22.50;99.90
67890;DHT22;54685;52.082;5.426;2023-06-22T07:58:22;22.60;99.90
67890;DHT22;54685;52.082;5.426;2023-06-22T08:00:49;22.70;99.90
67890;DHT22;54685;52.082;5.426;2023-06-22T08:03:16;22.80;99.90
67890;DHT22;54685;52.082;5.426;2023-06-22T08:05:43;22.90;99.90
67890;DHT22;54685;52.082;5.426;2023-06-22T08:08:10;23.00;99.90
67890;DHT22;54685;52.082;5.426;2023-06-22T08:10:40;23.10;99.90
67890;DHT22;54685;52.082;5.426;2023-06-22T08:13:08;23.10;99.90
67890;DHT22;54685;52.082;5.426;2023-06-22T08:15:36;23.20;99.90
67890;DHT22;54685;52.082;5.426;2023-06-22T08:18:03;23.30;99.90
67890;DHT22;54685;52.082;5.426;2023-06-22T08:20:32;23.40;99.90
67890;DHT22;54685;52.082;5.426;2023-06-22T08:23:00;23.60;99.90
67890;DHT22;54685;52.082;5.426;2023-06-22T08:25:33;23.80;99.90
67890;DHT22;54685;52.082;5.426;2023-06-22T08:28:02;23.90;99.90
67890;DHT22;54685;52.082;5.426;2023-06-22T08:30:29;24.00;99.50
67890;DHT22;54685;52.082;5.426;2023-06-22T08:32:56;24.10;96.60
67890;DHT22;54685;52.082;5.426;2023-06-22T08:35:23;24.10;96.20
67890;DHT22;54685;52.082;5.426;2023-06-22T08:37:50;24.30;95.30
67890;DHT22;54685;52.082;5.426;2023-06-22T08:40:19;24.50;94.40
67890;DHT22;54685;52.082;5.426;2023-06-22T08:42:48;24.50;91.20
67890;DHT22;54685;52.082;5.426;2023-06-22T08:45:15;24.70;92.10
67890;DHT22;54685;52.082;5.426;2023-06-22T08:47:43;24.80;90.00
67890;DHT22;54685;52.082;5.426;2023-06-22T08:50:10;24.90;90.30
67890;DHT22;54685;52.082;5.426;2023-06-22T08:52:39;24.90;87.30
67890;DHT22;54685;52.082;5.426;2023-06-22T08:55:12;25.00;88.60
67890;DHT22;54685;52.082;5.426;2023-06-22T08:57:39;25.10;85.30
67890;DHT22;54685;52.082;5.426;2023-06-22T09:00:11;25.10;84.90
67890;DHT22;54685;52.082;5.426;2023-06-22T09:02:44;25.20;85.30
67890;DHT22;54685;52.082;5.426;2023-06-22T09:05:11;25.10;83.70
67890;DHT22;54685;52.082;5.426;2023-06-22T09:07:39;25.10;83.90
67890;DHT22;54685;52.082;5.426;2023-06-22T09:10:06;25.10;85.30
67890;DHT22;54685;52.082;5.426;2023-06-22T09:12:33;25.10;81.90
67890;DHT22;54685;52.082;5.426;2023-06-22T09:15:01;25.10;83.00
67890;DHT22;54685;52.082;5.426;2023-06-22T09:17:29;25.10;82.70
67890;DHT22;54685;52.082;5.426;2023-06-22T09:19:56;25.10;83.20
67890;DHT22;54685;52.082;5.426;2023-06-22T09:22:27;25.10;83.80
67890;DHT22;54685;52.082;5.426;2023-06-22T09:24:55;25.20;81.00
67890;DHT22;54685;52.082;5.426;2023-06-22T09:27:23;25.30;80.30
67890;DHT22;54685;52.082;5.426;2023-06-22T09:29:50;25.50;79.60
67890;DHT22;54685;52.082;5.426;2023-06-22T09:32:17;25.60;74.40
67890;DHT22;54685;52.082;5.426;2023-06-22T09:34:44;25.70;76.10
67890;DHT22;54685;52.082;5.426;2023-06-22T09:37:11;25.80;74.40
67890;DHT22;54685;52.082;5.426;2023-06-22T09:39:38;25.80;72.40
67890;DHT22;54685;52.082;5.426;2023-06-22T09:42:08;25.90;72.20
67890;DHT22;54685;52.082;5.426;2023-06-22T09:44:35;25.90;73.00
67890;DHT22;54685;52.082;5.426;2023-06-22T09:47:02;26.00;73.60
67890;DHT22;54685;52.082;5.426;2023-06-22T09:49:29;26.00;70.90
67890;DHT22;54685;52.082;5.426;2023-06-22T09:52:03;25.90;71.20
67890;DHT22;54685;52.082;5.426;2023-06-22T09:54:30;25.90;70.70
67890;DHT22;54685;52.082;5.426;2023-06-22T09:57:00;25.80;69.50
67890;DHT22;54685;52.082;5.426;2023-06-22T09:59:27;25.70;70.40
67890;DHT22;54685;52.082;5.426;2023-06-22T10:01:54;25.60;71.30
67890;DHT22;54685;52.082;5.426;2023-06-22T10:04:21;25.50;71.40
67890;DHT22;54685;52.082;5.426;2023-06-22T10:06:49;25.40;71.20
67890;DHT22;54685;52.082;5.426;2023-06-22T10:09:15;25.30;71.50
67890;DHT22;54685;52.082;5.426;2023-06-22T10:11:42;25.20;72.10
67890;DHT22;54685;52.082;5.426;2023-06-22T10:14:09;25.20;71.80
67890;DHT22;54685;52.082;5.426;2023-06-22T10:16:36;25.10;73.20
67890;DHT22;54685;52.082;5.426;2023-06-22T10:19:03;25.10;72.70
67890;DHT22;54685;52.082;5.426;2023-06-22T10:21:30;25.00;72.00
67890;DHT22;54685;52.082;5.426;2023-06-22T10:23:58;25.00;71.70
67890;DHT22;54685;52.082;5.426;2023-06-22T10:26:33;24.90;71.30
67890;DHT22;54685;52.082;5.426;2023-06-22T10:29:01;24.90;70.50
67890;DHT22;54685;52.082;5.426;2023-06-22T10:31:42;24.80;69.70
67890;DHT22;54685;52.082;5.426;2023-06-22T10:34:09;24.80;68.50
67890;DHT22;54685;52.082;5.426;2023-06-22T10:36:37;24.70;68.70
67890;DHT22;54685;52.082;5.426;2023-06-22T10:39:05;24.70;69.40
67890;DHT22;54685;52.082;5.426;2023-06-22T10:41:32;24.70;68.60
67890;DHT22;54685;52.082;5.426;2023-06-22T10:43:59;24.60;68.40
67890;DHT22;54685;52.082;5.426;2023-06-22T10:46:26;24.70;68.20
67890;DHT22;54685;52.082;5.426;2023-06-22T10:48:54;24.60;69.50
67890;DHT22;54685;52.082;5.426;2023-06-22T10:51:24;24.60;70.00
67890;DHT22;54685;52.082;5.426;2023-06-22T10:53:51;24.60;70.30
67890;DHT22;54685;52.082;5.426;2023-06-22T10:56:18;24.70;71.20
67890;DHT22;54685;52.082;5.426;2023-06-22T10:58:46;24.60;72.20
67890;DHT22;54685;52.082;5.426;2023-06-22T11:01:13;24.70;72.90
67890;DHT22;54685;52.082;5.426;2023-06-22T11:04:08;24.70;74.30
67890;DHT22;54685;52.082;5.426;2023-06-22T11:06:38;24.80;73.60
67890;DHT22;54685;52.082;5.426;2023-06-22T11:09:06;24.80;73.30
67890;DHT22;54685;52.082;5.426;2023-06-22T11:11:38;24.80;73.40
67890;DHT22;54685;52.082;5.426;2023-06-22T11:14:05;24.90;73.90
67890;DHT22;54685;52.082;5.426;2023-06-22T11:16:32;24.90;74.30
67890;DHT22;54685;52.082;5.426;2023-06-22T11:18:59;25.00;74.20
67890;DHT22;54685;52.082;5.426;2023-06-22T11:21:28;25.00;74.40
67890;DHT22;54685;52.082;5.426;2023-06-22T11:23:55;25.00;75.60
67890;DHT22;54685;52.082;5.426;2023-06-22T11:26:22;25.10;74.60
67890;DHT22;54685;52.082;5.426;2023-06-22T11:28:49;25.10;74.80
67890;DHT22;54685;52.082;5.426;2023-06-22T11:31:16;25.10;75.20
67890;DHT22;54685;52.082;5.426;2023-06-22T11:33:52;25.10;75.30
67890;DHT22;54685;52.082;5.426;2023-06-22T11:36:19;25.10;75.50
67890;DHT22;54685;52.082;5.426;2023-06-22T11:38:46;25.20;76.10
67890;DHT22;54685;52.082;5.426;2023-06-22T11:41:14;25.20;76.50
67890;DHT22;54685;52.082;5.426;2023-06-22T11:43:41;25.20;77.20
67890;DHT22;54685;52.082;5.426;2023-06-22T11:46:08;25.20;76.90
67890;DHT22;54685;52.082;5.426;2023-06-22T11:48:35;25.20;76.20
67890;DHT22;54685;52.082;5.426;2023-06-22T11:51:03;25.20;77.10
67890;DHT22;54685;52.082;5.426;2023-06-22T11:53:30;25.20;77.70
67890;DHT22;54685;52.082;5.426;2023-06-22T11:55:57;25.20;76.80
67890;DHT22;54685;52.082;5.426;2023-06-22T11:58:24;25.20;76.80
67890;DHT22;54685;52.082;5.426;2023-06-22T12:00:51;25.20;77.00
67890;DHT22;54685;52.082;5.426;2023-06-22T12:03:19;25.20;77.70
67890;DHT22;54685;52.082;5.426;2023-06-22T12:05:50;25.10;77.70
67890;DHT22;54685;52.082;5.426;2023-06-22T12:08:21;25.10;77.70
67890;DHT22;54685;52.082;5.426;2023-06-22T12:10:49;25.10;78.20
67890;DHT22;54685;52.082;5.426;2023-06-22T12:13:18;25.10;80.60
67890;DHT22;54685;52.082;5.426;2023-06-22T12:15:45;25.10;84.00
67890;DHT22;54685;52.082;5.426;2023-06-22T12:18:13;25.00;87.30
67890;DHT22;54685;52.082;5.426;2023-06-22T12:20:42;25.00;89.20
67890;DHT22;54685;52.082;5.426;2023-06-22T12:23:12;24.90;90.70
67890;DHT22;54685;52.082;5.426;2023-06-22T12:25:39;24.80;91.80
67890;DHT22;54685;52.082;5.426;2023-06-22T12:28:06;24.70;93.30
67890;DHT22;54685;52.082;5.426;2023-06-22T12:30:33;24.60;96.80
67890;DHT22;54685;52.082;5.426;2023-06-22T12:33:01;24.40;97.20
67890;DHT22;54685;52.082;5.426;2023-06-22T12:35:29;24.10;99.30
67890;DHT22;54685;52.082;5.426;2023-06-22T12:37:56;24.00;99.90
67890;DHT22;54685;52.082;5.426;2023-06-22T12:40:23;23.90;99.90
67890;DHT22;54685;52.082;5.426;2023-06-22T12:42:51;23.90;99.90
67890;DHT22;54685;52.082;5.426;2023-06-22T12:45:18;23.80;99.90
67890;DHT22;54685;52.082;5.426;2023-06-22T12:47:45;23.70;99.90
67890;DHT22;54685;52.082;5.426;2023-06-22T12:50:12;23.60;99.90
67890;DHT22;54685;52.082;5.426;2023-06-22T12:52:41;23.40;99.90
67890;DHT22;54685;52.082;5.426;2023-06-22T12:55:10;23.30;99.90
67890;DHT22;54685;52.082;5.426;2023-06-22T12:57:37;23.30;99.90
67890;DHT22;54685;52.082;5.426;2023-06-22T13:00:04;23.20;99.90
67890;DHT22;54685;52.082;5.426;2023-06-22T13:02:32;23.10;99.90
67890;DHT22;54685;52.082;5.426;2023-06-22T13:04:59;23.00;99.90
67890;DHT22;54685;52.082;5.426;2023-06-22T13:07:26;22.90;99.90
67890;DHT22;54685;52.082;5.426;2023-06-22T13:09:53;22.90;99.90
67890;DHT22;54685;52.082;5.426;2023-06-22T13:12:20;22.90;99.90
67890;DHT22;54685;52.082;5.426;2023-06-22T13:14:48;22.90;99.90
67890;DHT22;54685;52.082;5.426;2023-06-22T13:17:16;22.80;99.90
67890;DHT22;54685;52.082;5.426;2023-06-22T13:19:43;22.80;99.90
67890;DHT22;54685;52.082;5.426;2023-06-22T13:22:34;22.80;99.90
67890;DHT22;54685;52.082;5.426;2023-06-22T13:25:08;22.80;99.90
67890;DHT22;54685;52.082;5.426;2023-06-22T13:27:42;22.80;99.90
67890;DHT22;54685;52.082;5.426;2023-06-22T13:30:09;22.70;99.90
67890;DHT22;54685;52.082;5.426;2023-06-22T13:32:40;22.70;99.90
67890;DHT22;54685;52.082;5.426;2023-06-22T13:35:11;22.80;99.90
67890;DHT22;54685;52.082;5.426;2023-06-22T13:37:39;22.70;99.90
67890;DHT22;54685;52.082;5.426;2023-06-22T13:40:07;22.80;99.90
67890;DHT22;54685;52.082;5.426;2023-06-22T13:42:34;22.80;99.90
67890;DHT22;54685;52.082;5.426;2023-06-22T13:45:02;22.80;99.90
67890;DHT22;54685;52.082;5.426;2023-06-22T13:47:30;22.90;99.90
67890;DHT22;54685;52.082;5.426;2023-06-22T13:49:58;22.90;99.90
67890;DHT22;54685;52.082;5.426;2023-06-22T13:52:26;23.00;99.90
67890;DHT22;54685;52.082;5.426;2023-06-22T13:54:53;22.90;99.90
67890;DHT22;54685;52.082;5.426;2023-06-22T13:57:20;22.90;99.90
67890;DHT22;54685;52.082;5.426;2023-06-22T13:59:50;22.90;99.90
67890;DHT22;54685;52.082;5.426;2023-06-22T14:02:17;22.90;99.90
67890;DHT22;54685;52.082;5.426;2023-06-22T14:04:44;22.90;99.90
67890;DHT22;54685;52.082;5.426;2023-06-22T14:07:14;22.80;99.90
67890;DHT22;54685;52.082;5.426;2023-06-22T14:09:41;22.80;99.90
67890;DHT22;54685;52.082;5.426;2023-06-22T14:12:09;22.80;99.90
67890;DHT22;54685;52.082;5.426;2023-06-22T14:14:37;22.80;99.90
67890;DHT22;54685;52.082;5.426;2023-06-22T14:17:05;22.80;99.90
67890;DHT22;54685;52.082;5.426;2023-06-22T14:19:32;22.70;99.90
67890;DHT22;54685;52.082;5.426;2023-06-22T14:21:59;22.70;99.90
67890;DHT22;54685;52.082;5.426;2023-06-22T14:24:26;22.70;99.90
67890;DHT22;54685;52.082;5.426;2023-06-22T14:26:56;22.70;99.90
67890;DHT22;54685;52.082;5.426;2023-06-22T14:29:26;22.60;99.90
67890;DHT22;54685;52.082;5.426;2023-06-22T14:31:56;22.60;99.90
67890;DHT22;54685;52.082;5.426;2023-06-22T14:34:23;22.60;99.90
67890;DHT22;54685;52.082;5.426;2023-06-22T14:36:50;22.50;99.90
67890;DHT22;54685;52.082;5.426;2023-06-22T14:39:20;22.40;99.90
67890;DHT22;54685;52.082;5.426;2023-06-22T14:41:48;22.30;99.90
67890;DHT22;54685;52.082;5.426;2023-06-22T14:44:17;22.30;99.90
67890;DHT22;54685;52.082;5.426;2023-06-22T14:46:44;22.30;99.90
67890;DHT22;54685;52.082;5.426;2023-06-22T14:49:11;22.30;99.90
67890;DHT22;54685;52.082;5.426;2023-06-22T14:51:38;22.20;99.90
67890;DHT22;54685;52.082;5.426;2023-06-22T14:54:06;22.20;99.90
67890;DHT22;54685;52.082;5.426;2023-06-22T14:56:33;22.20;99.90
67890;DHT22;54685;52.082;5.426;2023-06-22T14:59:00;22.00;99.90
67890;DHT22;54685;52.082;5.426;2023-06-22T15:01:28;22.00;99.90
67890;DHT22;54685;52.082;5.426;2023-06-22T15:03:55;22.00;99.90
67890;DHT22;54685;52.082;5.426;2023-06-22T15:06:22;21.80;99.90
67890;DHT22;54685;52.082;5.426;2023-06-22T15:08:49;21.70;99.90
67890;DHT22;54685;52.082;5.426;2023-06-22T15:11:16;21.60;99.90
67890;DHT22;54685;52.082;5.426;2023-06-22T15:13:46;21.50;99.90
67890;DHT22;54685;52.082;5.426;2023-06-22T15:16:13;21.40;99.90
67890;DHT22;54685;52.082;5.426;2023-06-22T15:18:40;21.30;99.90
67890;DHT22;54685;52.082;5.426;2023-06-22T15:21:08;21.20;99.90
67890;DHT22;54685;52.082;5.426;2023-06-22T15:23:35;21.10;99.90
67890;DHT22;54685;52.082;5.426;2023-06-22T15:26:03;21.10;99.90
67890;DHT22;54685;52.082;5.426;2023-06-22T15:28:33;21.00;99.90
67890;DHT22;54685;52.082;5.426;2023-06-22T15:31:02;20.90;99.90
67890;DHT22;54685;52.082;5.426;2023-06-22T15:33:29;20.90;99.90
67890;DHT22;54685;52.082;5.426;2023-06-22T15:36:00;20.80;99.90
67890;DHT22;54685;52.082;5.426;2023-06-22T15:38:39;20.80;99.90
67890;DHT22;54685;52.082;5.426;2023-06-22T15:41:06;20.70;99.90
67890;DHT22;54685;52.082;5.426;2023-06-22T15:43:33;20.70;99.90
67890;DHT22;54685;52.082;5.426;2023-06-22T15:46:03;20.60;99.90
67890;DHT22;54685;52.082;5.426;2023-06-22T15:48:30;20.70;99.90